createdAt,value
2018-10-01T00:01:01.433Z,5.9
2018-10-01T00:06:01.414Z,6.1
2018-10-01T00:11:01.420Z,6.3
2018-10-01T00:17:01.405Z,6.0
2018-10-01T00:22:01.374Z,6.2
2018-10-01T00:27:01.379Z,6.4
2018-10-01T00:32:01.406Z,6.1
2018-10-01T00:37:06.384Z,6.2
2018-10-01T00:42:06.386Z,6.5
2018-10-01T00:47:01.413Z,6.6
2018-10-01T00:52:06.389Z,6.8
2018-10-01T00:57:01.425Z,7.3
2018-10-01T01:02:01.411Z,7.4
2018-10-01T01:07:01.419Z,7.2
2018-10-01T01:12:01.373Z,7.2
2018-10-01T01:17:01.420Z,7.2
2018-10-01T01:27:01.421Z,7.0
2018-10-01T01:32:06.423Z,7.1
2018-10-01T01:37:06.386Z,7.6
2018-10-01T01:42:06.393Z,7.4
2018-10-01T01:47:01.410Z,7.5
2018-10-01T01:52:01.417Z,7.5
2018-10-01T01:57:01.411Z,7.2
2018-10-01T02:02:01.417Z,6.8
2018-10-01T02:07:01.413Z,6.8
2018-10-01T02:12:01.492Z,6.7
2018-10-01T02:17:01.420Z,6.7
2018-10-01T02:22:01.443Z,6.8
2018-10-01T02:27:01.403Z,6.7
2018-10-01T02:32:01.409Z,6.8
2018-10-01T02:37:01.412Z,6.6
2018-10-01T02:42:01.479Z,6.8
2018-10-01T02:47:01.416Z,6.9
2018-10-01T02:52:01.426Z,6.8
2018-10-01T02:57:01.421Z,6.8
2018-10-01T03:02:01.419Z,6.4
2018-10-01T03:07:01.379Z,6.2
2018-10-01T03:12:01.375Z,6.0
2018-10-01T03:17:01.383Z,5.9
2018-10-01T03:22:01.394Z,5.7
2018-10-01T03:27:01.389Z,5.6
2018-10-01T03:32:01.390Z,5.0
2018-10-01T03:37:01.368Z,4.6
2018-10-01T03:42:01.376Z,4.3
2018-10-01T03:47:01.377Z,4.1
2018-10-01T03:52:01.394Z,4.2
2018-10-01T03:57:01.380Z,4.6
2018-10-01T04:02:01.384Z,4.8
2018-10-01T04:07:01.385Z,4.9
2018-10-01T04:12:01.384Z,4.9
2018-10-01T04:17:01.374Z,5.1
2018-10-01T04:27:01.407Z,5.3
2018-10-01T04:32:01.372Z,5.2
2018-10-01T04:37:01.376Z,5.2
2018-10-01T04:47:01.389Z,5.0
2018-10-01T04:52:01.395Z,5.0
2018-10-01T04:57:01.462Z,5.2
2018-10-01T05:02:01.391Z,5.0
2018-10-01T05:07:01.384Z,5.2
2018-10-01T05:12:01.409Z,5.2
2018-10-01T05:22:01.443Z,5.1
2018-10-01T05:27:01.600Z,4.9
2018-10-01T05:32:01.454Z,5.1
2018-10-01T05:37:01.385Z,4.9
2018-10-01T05:47:01.391Z,4.8
2018-10-01T05:52:01.369Z,5.1
2018-10-01T05:57:01.372Z,4.9
2018-10-01T06:02:01.378Z,5.1
2018-10-01T06:07:01.388Z,4.9
2018-10-01T06:12:02.679Z,4.9
2018-10-01T06:22:01.396Z,5.1
2018-10-01T06:27:01.385Z,4.5
2018-10-01T06:32:01.373Z,4.4
2018-10-01T06:37:01.377Z,4.7
2018-10-01T06:42:01.588Z,4.6
2018-10-01T06:47:01.384Z,4.1
2018-10-01T06:52:01.445Z,4.1
2018-10-01T06:57:01.388Z,4.0
2018-10-01T07:02:01.382Z,3.4
2018-10-01T07:07:01.416Z,3.4
2018-10-01T07:12:01.404Z,3.4
2018-10-01T07:17:06.848Z,3.4
2018-10-01T07:22:06.378Z,3.4
2018-10-01T07:27:06.383Z,3.4
2018-10-01T07:32:01.471Z,3.2
2018-10-01T07:37:06.383Z,3.0
2018-10-01T07:42:01.413Z,2.8
2018-10-01T07:47:06.393Z,2.5
2018-10-01T07:52:01.416Z,2.1
2018-10-01T07:58:01.384Z,1.8
2018-10-01T08:03:01.377Z,1.2
2018-10-01T08:08:01.645Z,0.8
2018-10-01T08:13:06.384Z,0.6
2018-10-01T08:18:06.391Z,0.3
2018-10-01T08:23:01.484Z,0.0
2018-10-01T08:28:01.416Z,0.0
2018-10-01T08:38:06.796Z,0.0
2018-10-01T08:43:06.386Z,0.0
2018-10-01T08:48:01.426Z,0.0
2018-10-01T09:03:06.395Z,0.0
2018-10-01T09:08:01.615Z,0.0
2018-10-01T09:14:01.523Z,0.0
2018-10-01T09:19:01.373Z,0.0
2018-10-01T09:24:01.377Z,0.0
2018-10-01T09:29:01.557Z,0.0
2018-10-01T09:34:01.384Z,0.0
2018-10-01T09:44:01.560Z,0.0
2018-10-01T09:49:01.407Z,0.0
2018-10-01T09:54:01.375Z,0.0
2018-10-01T10:09:01.414Z,0.0
2018-10-01T10:19:06.386Z,0.1
2018-10-01T10:24:06.395Z,0.1
2018-10-01T10:34:01.513Z,0.1
2018-10-01T10:39:06.378Z,0.1
2018-10-01T10:44:01.604Z,0.0
2018-10-01T10:49:01.416Z,0.0
2018-10-01T10:59:01.449Z,0.0
2018-10-01T11:04:06.463Z,0.0
2018-10-01T11:09:01.383Z,0.0
2018-10-01T11:14:01.990Z,0.0
2018-10-01T11:19:02.287Z,0.0
2018-10-01T11:24:01.374Z,0.0
2018-10-01T11:34:01.377Z,0.0
2018-10-01T11:44:01.383Z,0.0
2018-10-01T11:49:01.394Z,0.0
2018-10-01T11:54:01.516Z,0.0
2018-10-01T11:59:02.312Z,0.0
2018-10-01T12:04:01.828Z,0.0
2018-10-01T12:10:01.728Z,0.0
2018-10-01T12:15:01.610Z,0.0
2018-10-01T12:20:01.424Z,0.0
2018-10-01T12:25:01.382Z,0.0
2018-10-01T12:30:01.451Z,0.2
2018-10-01T12:35:01.562Z,0.2
2018-10-01T12:45:01.665Z,0.2
2018-10-01T12:50:01.409Z,0.2
2018-10-01T12:55:01.381Z,0.0
2018-10-01T13:00:01.374Z,0.0
2018-10-01T13:10:01.898Z,0.0
2018-10-01T13:15:01.385Z,0.0
2018-10-01T13:20:01.386Z,0.0
2018-10-01T13:30:01.611Z,0.0
2018-10-01T13:35:01.373Z,0.0
2018-10-01T13:45:02.314Z,0.8
2018-10-01T13:50:01.384Z,0.8
2018-10-01T13:55:01.965Z,0.8
2018-10-01T14:00:01.460Z,0.8
2018-10-01T14:05:01.416Z,0.8
2018-10-01T14:10:01.399Z,0.0
2018-10-01T14:15:01.435Z,0.0
2018-10-01T14:20:02.261Z,0.0
2018-10-01T14:30:02.021Z,0.0
2018-10-01T14:35:01.379Z,0.0
2018-10-01T14:40:01.383Z,0.0
2018-10-01T14:45:01.382Z,0.0
2018-10-01T14:55:01.384Z,0.0
2018-10-01T15:00:06.874Z,0.0
2018-10-01T15:15:01.379Z,0.0
2018-10-01T15:20:01.382Z,0.0
2018-10-01T15:30:01.639Z,0.0
2018-10-01T15:46:01.374Z,0.0
2018-10-01T16:01:01.377Z,0.2
2018-10-01T16:11:01.503Z,0.2
2018-10-01T16:16:01.387Z,0.2
2018-10-01T16:26:01.382Z,0.0
2018-10-01T16:41:01.376Z,0.0
2018-10-01T16:46:01.375Z,0.1
2018-10-01T16:56:01.387Z,0.1
2018-10-01T17:01:01.391Z,0.1
2018-10-01T17:06:01.376Z,0.1
2018-10-01T17:11:01.381Z,0.0
2018-10-01T17:16:01.388Z,0.0
2018-10-01T17:21:01.386Z,0.0
2018-10-01T17:26:01.385Z,0.1
2018-10-01T17:31:01.384Z,0.1
2018-10-01T17:41:01.383Z,0.3
2018-10-01T17:46:01.381Z,0.3
2018-10-01T17:51:01.386Z,0.2
2018-10-01T17:56:01.372Z,0.2
2018-10-01T18:06:01.909Z,0.2
2018-10-01T18:11:01.382Z,0.2
2018-10-01T18:16:01.375Z,0.3
2018-10-01T18:21:01.378Z,0.3
2018-10-01T18:26:01.409Z,0.5
2018-10-01T18:31:01.389Z,0.3
2018-10-01T18:36:01.653Z,0.5
2018-10-01T18:41:01.384Z,0.4
2018-10-01T18:46:01.370Z,0.4
2018-10-01T18:51:01.506Z,0.2
2018-10-01T18:56:01.371Z,0.4
2018-10-01T19:01:01.440Z,0.3
2018-10-01T19:06:01.920Z,0.3
2018-10-01T19:11:06.460Z,0.3
2018-10-01T19:16:01.413Z,0.2
2018-10-01T19:21:01.774Z,0.2
2018-10-01T19:26:06.935Z,0.4
2018-10-01T19:31:06.381Z,0.4
2018-10-01T19:36:01.676Z,0.4
2018-10-01T19:41:01.665Z,0.4
2018-10-01T19:46:01.408Z,0.2
2018-10-01T19:51:06.841Z,0.1
2018-10-01T19:56:01.396Z,0.2
2018-10-01T20:01:01.428Z,0.2
2018-10-01T20:06:01.384Z,0.4
2018-10-01T20:11:01.820Z,0.4
2018-10-01T20:16:01.782Z,0.3
2018-10-01T20:21:01.570Z,0.4
2018-10-01T20:26:01.976Z,0.4
2018-10-01T20:31:01.380Z,0.4
2018-10-01T20:36:02.001Z,0.5
2018-10-01T20:41:01.729Z,0.7
2018-10-01T20:46:01.461Z,0.7
2018-10-01T20:51:01.392Z,0.8
2018-10-01T21:06:01.380Z,0.4
2018-10-01T21:11:01.379Z,0.2
2018-10-01T21:16:01.382Z,0.0
2018-10-01T21:21:01.384Z,0.0
2018-10-01T21:26:01.384Z,0.0
2018-10-01T21:31:02.115Z,0.0
2018-10-01T21:36:01.386Z,0.0
2018-10-01T21:41:01.520Z,0.0
2018-10-01T21:46:01.377Z,0.0
2018-10-01T21:51:01.392Z,0.0
2018-10-01T21:56:01.389Z,0.1
2018-10-01T22:01:01.384Z,0.1
2018-10-01T22:06:01.392Z,0.2
2018-10-01T22:11:01.413Z,0.2
2018-10-01T22:16:01.374Z,0.2
2018-10-01T22:21:01.375Z,0.1
2018-10-01T22:26:01.381Z,0.1
2018-10-01T22:31:01.377Z,0.0
2018-10-01T22:36:01.388Z,0.0
2018-10-01T22:41:01.384Z,0.0
2018-10-01T22:46:01.387Z,0.0
2018-10-01T22:51:01.372Z,0.0
2018-10-01T22:56:03.481Z,0.0
2018-10-01T23:01:01.385Z,0.0
2018-10-01T23:06:01.385Z,0.0
2018-10-01T23:11:01.376Z,0.0
2018-10-01T23:16:01.377Z,0.0
2018-10-01T23:21:01.382Z,0.0
2018-10-01T23:26:01.385Z,0.0
2018-10-01T23:31:01.408Z,0.0
2018-10-01T23:36:01.368Z,0.0
2018-10-01T23:41:01.369Z,0.0
2018-10-01T23:46:01.371Z,0.0
2018-10-01T23:51:01.438Z,0.0
2018-10-01T23:56:01.462Z,0.0
